Aérodrome :
LOGIN :

S'inscrire | Disclaimer

   EN    FR    IT 

 










Légende :    VFR   VFR Marginal   IFR   IFR Intensif   IFR Très Intensif
Visi : 
Plafond : 
>= 8 km
>= 3000ft
5 à 8 km
1000 à 3000 ft
1500m à 5 km
500 à 1000 ft
800 à 1500m
200 à 500 ft
< 800m
< 200 ft
Symboles :   Orages  Brouillard  Fortes neiges  Fortes précipitations  Vent > 20 kt
SIGMETs :   Divers  Orages  Givrage  Turbulence  Onde Orograph.  Cendres Volcan.






- Altitude de l'aérodrome : 82 ft
- Code IATA : ALG


DAAG - Alger Houari Boumedienne

DERNIER METAR :
  • 061300Z 08017KT CAVOK 30/18 Q1016

METARs EXPIRÉS :
  • 061230Z 07016KT CAVOK 30/18 Q1016
  • 061200Z 06016KT CAVOK 30/18 Q1016
  • 061130Z 08015KT CAVOK 30/18 Q1016
  • 061100Z 06013KT CAVOK 30/17 Q1016
  • 061030Z 07011KT CAVOK 30/18 Q1016

TAF TAF DAAG
Valide du 06 à 12h jusqu'au 07 à 12h UTC


061100Z 0612/0712 06015KT CAVOK
BECMG 0620/0623 VRB02KT
BECMG 0708/0712 04012KT



MET'MAP, la Météo Aéronautique d'un coup d'oeil ! - Copyright ORBIFLY Décembre 2007 - Disclaimer

ORBIFLY MET'MAP TEAM :

Programmation & Développement : Alexandra Zaïnal
Sur une idée originale de : Baudouin d'Aumeries
Assistance à la programmation : Marc-Olivier Méhu
Soutien technique & logistique : Manuel Goepfert

Contact : metmap@orbifly.com




SOURCES & CREDITS :

   NOAA